sensor_id;sensor_type;location;lat;lon;timestamp;temperature;humidity
32027;DHT22;18543;50.848;4.596;2022-12-18T00:03:49;22.10;45.70
32027;DHT22;18543;50.848;4.596;2022-12-18T00:06:20;22.10;45.70
32027;DHT22;18543;50.848;4.596;2022-12-18T00:08:47;22.10;45.70
32027;DHT22;18543;50.848;4.596;2022-12-18T00:11:17;22.10;45.60
32027;DHT22;18543;50.848;4.596;2022-12-18T00:13:45;22.10;45.60
32027;DHT22;18543;50.848;4.596;2022-12-18T00:16:15;22.10;45.50
32027;DHT22;18543;50.848;4.596;2022-12-18T00:18:42;22.10;45.50
32027;DHT22;18543;50.848;4.596;2022-12-18T00:21:13;22.10;45.50
32027;DHT22;18543;50.848;4.596;2022-12-18T00:23:42;22.10;45.40
32027;DHT22;18543;50.848;4.596;2022-12-18T00:26:14;22.10;45.40
32027;DHT22;18543;50.848;4.596;2022-12-18T00:28:43;22.10;45.40
32027;DHT22;18543;50.848;4.596;2022-12-18T00:31:15;22.10;45.40
32027;DHT22;18543;50.848;4.596;2022-12-18T00:33:43;22.10;45.40
32027;DHT22;18543;50.848;4.596;2022-12-18T00:36:13;22.10;45.30
32027;DHT22;18543;50.848;4.596;2022-12-18T00:38:40;22.10;45.30
32027;DHT22;18543;50.848;4.596;2022-12-18T00:41:08;22.10;45.30
32027;DHT22;18543;50.848;4.596;2022-12-18T00:43:36;22.10;45.20
32027;DHT22;18543;50.848;4.596;2022-12-18T00:46:04;22.10;45.20
32027;DHT22;18543;50.848;4.596;2022-12-18T00:48:32;22.10;45.20
32027;DHT22;18543;50.848;4.596;2022-12-18T00:50:59;22.10;45.20
32027;DHT22;18543;50.848;4.596;2022-12-18T00:53:26;22.10;45.20
32027;DHT22;18543;50.848;4.596;2022-12-18T00:55:53;22.10;45.10
32027;DHT22;18543;50.848;4.596;2022-12-18T00:58:20;22.10;45.10
32027;DHT22;18543;50.848;4.596;2022-12-18T01:00:46;22.10;45.10
32027;DHT22;18543;50.848;4.596;2022-12-18T01:03:16;22.10;45.10
32027;DHT22;18543;50.848;4.596;2022-12-18T01:05:43;22.10;45.00
32027;DHT22;18543;50.848;4.596;2022-12-18T01:08:10;22.00;44.90
32027;DHT22;18543;50.848;4.596;2022-12-18T01:10:40;22.10;45.00
32027;DHT22;18543;50.848;4.596;2022-12-18T01:13:07;22.10;45.00
32027;DHT22;18543;50.848;4.596;2022-12-18T01:15:34;22.10;45.00
32027;DHT22;18543;50.848;4.596;2022-12-18T01:18:01;22.10;44.90
32027;DHT22;18543;50.848;4.596;2022-12-18T01:20:28;22.10;44.90
32027;DHT22;18543;50.848;4.596;2022-12-18T01:22:55;22.10;44.90
32027;DHT22;18543;50.848;4.596;2022-12-18T01:25:22;22.10;44.90
32027;DHT22;18543;50.848;4.596;2022-12-18T01:27:48;22.00;44.80
32027;DHT22;18543;50.848;4.596;2022-12-18T01:30:15;22.10;44.80
32027;DHT22;18543;50.848;4.596;2022-12-18T01:32:42;22.10;44.80
32027;DHT22;18543;50.848;4.596;2022-12-18T01:35:09;22.00;44.70
32027;DHT22;18543;50.848;4.596;2022-12-18T01:37:36;22.00;44.70
32027;DHT22;18543;50.848;4.596;2022-12-18T01:40:03;22.10;44.70
32027;DHT22;18543;50.848;4.596;2022-12-18T01:42:32;22.00;44.60
32027;DHT22;18543;50.848;4.596;2022-12-18T01:45:02;22.00;44.60
32027;DHT22;18543;50.848;4.596;2022-12-18T01:47:52;22.00;44.60
32027;DHT22;18543;50.848;4.596;2022-12-18T01:50:40;22.00;44.50
32027;DHT22;18543;50.848;4.596;2022-12-18T01:53:15;22.00;44.50
32027;DHT22;18543;50.848;4.596;2022-12-18T01:55:48;22.00;44.40
32027;DHT22;18543;50.848;4.596;2022-12-18T01:58:17;22.00;44.40
32027;DHT22;18543;50.848;4.596;2022-12-18T02:00:44;22.10;44.50
32027;DHT22;18543;50.848;4.596;2022-12-18T02:03:11;22.00;44.40
32027;DHT22;18543;50.848;4.596;2022-12-18T02:11:17;22.00;44.30
32027;DHT22;18543;50.848;4.596;2022-12-18T02:16:26;22.00;44.20
32027;DHT22;18543;50.848;4.596;2022-12-18T02:18:58;22.00;44.10
32027;DHT22;18543;50.848;4.596;2022-12-18T02:21:51;22.00;44.10
32027;DHT22;18543;50.848;4.596;2022-12-18T02:24:37;22.00;44.10
32027;DHT22;18543;50.848;4.596;2022-12-18T02:27:09;22.00;44.00
32027;DHT22;18543;50.848;4.596;2022-12-18T02:29:52;22.00;44.00
32027;DHT22;18543;50.848;4.596;2022-12-18T02:32:28;22.00;44.00
32027;DHT22;18543;50.848;4.596;2022-12-18T02:34:57;22.00;44.00
32027;DHT22;18543;50.848;4.596;2022-12-18T02:37:26;22.00;44.00
32027;DHT22;18543;50.848;4.596;2022-12-18T02:39:55;21.90;43.90
32027;DHT22;18543;50.848;4.596;2022-12-18T02:42:24;21.90;43.80
32027;DHT22;18543;50.848;4.596;2022-12-18T02:44:51;21.90;43.80
32027;DHT22;18543;50.848;4.596;2022-12-18T02:47:22;21.90;43.80
32027;DHT22;18543;50.848;4.596;2022-12-18T02:49:53;22.00;43.90
32027;DHT22;18543;50.848;4.596;2022-12-18T02:58:01;21.90;43.70
32027;DHT22;18543;50.848;4.596;2022-12-18T03:00:39;21.90;43.70
32027;DHT22;18543;50.848;4.596;2022-12-18T03:03:16;21.90;43.80
32027;DHT22;18543;50.848;4.596;2022-12-18T03:08:35;21.90;43.70
32027;DHT22;18543;50.848;4.596;2022-12-18T03:11:04;21.90;43.80
32027;DHT22;18543;50.848;4.596;2022-12-18T03:13:39;21.90;43.70
32027;DHT22;18543;50.848;4.596;2022-12-18T03:16:11;21.90;43.70
32027;DHT22;18543;50.848;4.596;2022-12-18T03:18:50;21.90;43.70
32027;DHT22;18543;50.848;4.596;2022-12-18T03:21:26;21.90;43.70
32027;DHT22;18543;50.848;4.596;2022-12-18T03:23:55;21.90;43.70
32027;DHT22;18543;50.848;4.596;2022-12-18T03:26:24;21.90;43.70
32027;DHT22;18543;50.848;4.596;2022-12-18T03:29:12;21.90;43.70
32027;DHT22;18543;50.848;4.596;2022-12-18T03:31:42;22.00;43.70
32027;DHT22;18543;50.848;4.596;2022-12-18T03:34:17;21.90;43.70
32027;DHT22;18543;50.848;4.596;2022-12-18T03:36:46;21.90;43.70
32027;DHT22;18543;50.848;4.596;2022-12-18T03:39:13;21.90;43.70
32027;DHT22;18543;50.848;4.596;2022-12-18T03:41:50;21.90;43.70
32027;DHT22;18543;50.848;4.596;2022-12-18T03:44:28;21.90;43.70
32027;DHT22;18543;50.848;4.596;2022-12-18T03:47:10;21.90;43.70
32027;DHT22;18543;50.848;4.596;2022-12-18T03:52:33;21.90;44.20
32027;DHT22;18543;50.848;4.596;2022-12-18T03:55:03;21.90;43.70
32027;DHT22;18543;50.848;4.596;2022-12-18T03:57:32;21.90;43.70
32027;DHT22;18543;50.848;4.596;2022-12-18T04:00:09;21.90;43.60
32027;DHT22;18543;50.848;4.596;2022-12-18T04:02:38;22.00;43.60
32027;DHT22;18543;50.848;4.596;2022-12-18T04:05:08;21.90;43.60
32027;DHT22;18543;50.848;4.596;2022-12-18T04:07:36;21.90;43.50
32027;DHT22;18543;50.848;4.596;2022-12-18T04:10:07;22.00;43.60
32027;DHT22;18543;50.848;4.596;2022-12-18T04:12:34;22.00;43.60
32027;DHT22;18543;50.848;4.596;2022-12-18T04:15:04;22.00;43.60
32027;DHT22;18543;50.848;4.596;2022-12-18T04:17:31;21.90;43.50
32027;DHT22;18543;50.848;4.596;2022-12-18T04:19:58;21.90;43.50
32027;DHT22;18543;50.848;4.596;2022-12-18T04:22:25;21.90;43.50
32027;DHT22;18543;50.848;4.596;2022-12-18T04:24:51;22.00;43.60
32027;DHT22;18543;50.848;4.596;2022-12-18T04:27:18;21.90;43.40
32027;DHT22;18543;50.848;4.596;2022-12-18T04:29:45;22.00;43.50
32027;DHT22;18543;50.848;4.596;2022-12-18T04:32:12;22.00;43.50
32027;DHT22;18543;50.848;4.596;2022-12-18T04:34:38;22.00;43.60
32027;DHT22;18543;50.848;4.596;2022-12-18T04:37:05;22.00;43.40
32027;DHT22;18543;50.848;4.596;2022-12-18T04:39:32;22.00;43.40
32027;DHT22;18543;50.848;4.596;2022-12-18T04:42:00;22.00;43.50
32027;DHT22;18543;50.848;4.596;2022-12-18T04:44:29;22.00;43.40
32027;DHT22;18543;50.848;4.596;2022-12-18T04:46:56;22.00;43.40
32027;DHT22;18543;50.848;4.596;2022-12-18T04:49:23;22.00;43.40
32027;DHT22;18543;50.848;4.596;2022-12-18T04:51:50;22.00;43.40
32027;DHT22;18543;50.848;4.596;2022-12-18T04:54:17;22.00;43.40
32027;DHT22;18543;50.848;4.596;2022-12-18T04:56:43;22.00;43.50
32027;DHT22;18543;50.848;4.596;2022-12-18T04:59:10;22.00;43.50
32027;DHT22;18543;50.848;4.596;2022-12-18T05:01:37;22.00;43.40
32027;DHT22;18543;50.848;4.596;2022-12-18T05:04:04;22.00;43.40
32027;DHT22;18543;50.848;4.596;2022-12-18T05:06:31;22.00;43.40
32027;DHT22;18543;50.848;4.596;2022-12-18T05:08:58;22.00;43.40
32027;DHT22;18543;50.848;4.596;2022-12-18T05:11:24;22.00;43.50
32027;DHT22;18543;50.848;4.596;2022-12-18T05:13:51;22.00;43.50
32027;DHT22;18543;50.848;4.596;2022-12-18T05:16:18;22.00;43.50
32027;DHT22;18543;50.848;4.596;2022-12-18T05:18:45;22.00;43.50
32027;DHT22;18543;50.848;4.596;2022-12-18T05:21:11;22.00;43.50
32027;DHT22;18543;50.848;4.596;2022-12-18T05:23:38;22.00;43.50
32027;DHT22;18543;50.848;4.596;2022-12-18T05:26:06;22.00;43.50
32027;DHT22;18543;50.848;4.596;2022-12-18T05:28:35;22.00;43.50
32027;DHT22;18543;50.848;4.596;2022-12-18T05:31:03;22.00;43.50
32027;DHT22;18543;50.848;4.596;2022-12-18T05:33:33;22.00;43.50
32027;DHT22;18543;50.848;4.596;2022-12-18T05:36:01;22.00;43.50
32027;DHT22;18543;50.848;4.596;2022-12-18T05:38:29;22.00;43.50
32027;DHT22;18543;50.848;4.596;2022-12-18T05:40:56;22.00;43.50
32027;DHT22;18543;50.848;4.596;2022-12-18T05:43:27;22.00;43.50
32027;DHT22;18543;50.848;4.596;2022-12-18T05:45:54;22.00;43.50
32027;DHT22;18543;50.848;4.596;2022-12-18T05:48:22;22.00;43.40
32027;DHT22;18543;50.848;4.596;2022-12-18T05:50:50;22.10;43.50
32027;DHT22;18543;50.848;4.596;2022-12-18T05:53:18;22.00;43.50
32027;DHT22;18543;50.848;4.596;2022-12-18T05:55:46;22.00;43.40
32027;DHT22;18543;50.848;4.596;2022-12-18T05:58:14;22.00;43.40
32027;DHT22;18543;50.848;4.596;2022-12-18T06:00:43;22.10;43.50
32027;DHT22;18543;50.848;4.596;2022-12-18T06:03:11;22.00;43.50
32027;DHT22;18543;50.848;4.596;2022-12-18T06:05:40;22.10;43.60
32027;DHT22;18543;50.848;4.596;2022-12-18T06:08:08;22.10;43.50
32027;DHT22;18543;50.848;4.596;2022-12-18T06:10:35;22.10;43.50
32027;DHT22;18543;50.848;4.596;2022-12-18T06:13:02;22.10;43.50
32027;DHT22;18543;50.848;4.596;2022-12-18T06:15:29;22.10;43.50
32027;DHT22;18543;50.848;4.596;2022-12-18T06:17:56;22.10;43.50
32027;DHT22;18543;50.848;4.596;2022-12-18T06:20:23;22.10;43.50
32027;DHT22;18543;50.848;4.596;2022-12-18T06:22:57;22.10;43.50
32027;DHT22;18543;50.848;4.596;2022-12-18T06:25:24;22.10;43.50
32027;DHT22;18543;50.848;4.596;2022-12-18T06:27:51;22.10;43.60
32027;DHT22;18543;50.848;4.596;2022-12-18T06:30:18;22.00;43.60
32027;DHT22;18543;50.848;4.596;2022-12-18T06:32:45;22.00;43.80
32027;DHT22;18543;50.848;4.596;2022-12-18T06:35:17;22.00;44.00
32027;DHT22;18543;50.848;4.596;2022-12-18T06:37:46;21.90;44.10
32027;DHT22;18543;50.848;4.596;2022-12-18T06:40:13;21.90;44.10
32027;DHT22;18543;50.848;4.596;2022-12-18T06:42:40;21.90;44.20
32027;DHT22;18543;50.848;4.596;2022-12-18T06:45:07;21.90;44.30
32027;DHT22;18543;50.848;4.596;2022-12-18T06:47:34;21.90;44.40
32027;DHT22;18543;50.848;4.596;2022-12-18T06:50:01;21.90;44.50
32027;DHT22;18543;50.848;4.596;2022-12-18T06:52:28;21.80;44.40
32027;DHT22;18543;50.848;4.596;2022-12-18T06:54:57;21.80;44.50
32027;DHT22;18543;50.848;4.596;2022-12-18T06:57:24;21.80;44.60
32027;DHT22;18543;50.848;4.596;2022-12-18T06:59:51;21.80;44.60
32027;DHT22;18543;50.848;4.596;2022-12-18T07:02:18;21.80;44.60
32027;DHT22;18543;50.848;4.596;2022-12-18T07:04:45;21.80;44.50
32027;DHT22;18543;50.848;4.596;2022-12-18T07:07:11;21.90;44.60
32027;DHT22;18543;50.848;4.596;2022-12-18T07:09:38;21.80;44.60
32027;DHT22;18543;50.848;4.596;2022-12-18T07:12:05;21.80;44.60
32027;DHT22;18543;50.848;4.596;2022-12-18T07:14:33;21.80;44.60
32027;DHT22;18543;50.848;4.596;2022-12-18T07:17:00;21.90;44.60
32027;DHT22;18543;50.848;4.596;2022-12-18T07:19:27;21.80;44.60
32027;DHT22;18543;50.848;4.596;2022-12-18T07:21:58;21.80;44.60
32027;DHT22;18543;50.848;4.596;2022-12-18T07:24:24;21.80;44.60
32027;DHT22;18543;50.848;4.596;2022-12-18T07:26:52;21.80;44.60
32027;DHT22;18543;50.848;4.596;2022-12-18T07:29:19;21.80;44.60
32027;DHT22;18543;50.848;4.596;2022-12-18T07:31:45;21.90;44.70
32027;DHT22;18543;50.848;4.596;2022-12-18T07:34:13;21.90;44.70
32027;DHT22;18543;50.848;4.596;2022-12-18T07:36:41;21.80;44.70
32027;DHT22;18543;50.848;4.596;2022-12-18T07:39:10;21.80;44.70
32027;DHT22;18543;50.848;4.596;2022-12-18T07:41:37;21.80;44.70
32027;DHT22;18543;50.848;4.596;2022-12-18T07:44:10;21.80;44.80
32027;DHT22;18543;50.848;4.596;2022-12-18T07:46:37;21.80;44.80
32027;DHT22;18543;50.848;4.596;2022-12-18T07:49:05;21.80;44.80
32027;DHT22;18543;50.848;4.596;2022-12-18T07:51:32;21.80;44.80
32027;DHT22;18543;50.848;4.596;2022-12-18T07:53:59;21.90;44.90
32027;DHT22;18543;50.848;4.596;2022-12-18T07:56:26;21.90;44.90
32027;DHT22;18543;50.848;4.596;2022-12-18T07:58:56;21.90;44.90
32027;DHT22;18543;50.848;4.596;2022-12-18T08:01:24;21.90;44.90
32027;DHT22;18543;50.848;4.596;2022-12-18T08:03:51;21.90;44.90
32027;DHT22;18543;50.848;4.596;2022-12-18T08:06:19;21.90;44.90
32027;DHT22;18543;50.848;4.596;2022-12-18T08:08:54;21.90;45.00
32027;DHT22;18543;50.848;4.596;2022-12-18T08:11:23;21.80;45.00
32027;DHT22;18543;50.848;4.596;2022-12-18T08:13:51;21.80;45.00
32027;DHT22;18543;50.848;4.596;2022-12-18T08:16:19;21.80;45.10
32027;DHT22;18543;50.848;4.596;2022-12-18T08:18:46;21.70;45.10
32027;DHT22;18543;50.848;4.596;2022-12-18T08:21:18;21.80;45.20
32027;DHT22;18543;50.848;4.596;2022-12-18T08:23:47;21.80;45.20
32027;DHT22;18543;50.848;4.596;2022-12-18T08:26:16;21.80;45.10
32027;DHT22;18543;50.848;4.596;2022-12-18T08:28:44;21.80;45.20
32027;DHT22;18543;50.848;4.596;2022-12-18T08:31:11;21.80;45.20
32027;DHT22;18543;50.848;4.596;2022-12-18T08:33:40;21.80;45.30
32027;DHT22;18543;50.848;4.596;2022-12-18T08:36:08;21.80;45.30
32027;DHT22;18543;50.848;4.596;2022-12-18T08:38:36;21.80;45.30
32027;DHT22;18543;50.848;4.596;2022-12-18T08:41:08;21.80;45.20
32027;DHT22;18543;50.848;4.596;2022-12-18T08:43:35;21.80;45.20
32027;DHT22;18543;50.848;4.596;2022-12-18T08:46:23;21.80;45.10
32027;DHT22;18543;50.848;4.596;2022-12-18T08:48:51;21.80;45.00
32027;DHT22;18543;50.848;4.596;2022-12-18T08:51:19;21.80;44.90
32027;DHT22;18543;50.848;4.596;2022-12-18T08:53:46;21.80;44.70
32027;DHT22;18543;50.848;4.596;2022-12-18T08:56:13;21.80;44.60
32027;DHT22;18543;50.848;4.596;2022-12-18T08:58:41;21.80;44.60
32027;DHT22;18543;50.848;4.596;2022-12-18T09:01:10;21.80;44.60
32027;DHT22;18543;50.848;4.596;2022-12-18T09:03:38;21.70;44.60
32027;DHT22;18543;50.848;4.596;2022-12-18T09:06:06;21.70;44.70
32027;DHT22;18543;50.848;4.596;2022-12-18T09:08:34;21.60;44.80
32027;DHT22;18543;50.848;4.596;2022-12-18T09:11:03;21.60;44.80
32027;DHT22;18543;50.848;4.596;2022-12-18T09:13:30;21.60;45.00
32027;DHT22;18543;50.848;4.596;2022-12-18T09:15:58;21.50;44.20
32027;DHT22;18543;50.848;4.596;2022-12-18T09:18:24;21.50;43.60
32027;DHT22;18543;50.848;4.596;2022-12-18T09:20:52;21.50;43.50
32027;DHT22;18543;50.848;4.596;2022-12-18T09:23:20;21.50;43.50
32027;DHT22;18543;50.848;4.596;2022-12-18T09:25:47;21.40;42.50
32027;DHT22;18543;50.848;4.596;2022-12-18T09:28:17;21.30;42.30
32027;DHT22;18543;50.848;4.596;2022-12-18T09:30:49;21.30;42.20
32027;DHT22;18543;50.848;4.596;2022-12-18T09:33:16;21.30;42.20
32027;DHT22;18543;50.848;4.596;2022-12-18T09:35:45;21.30;42.50
32027;DHT22;18543;50.848;4.596;2022-12-18T09:38:15;21.30;43.20
32027;DHT22;18543;50.848;4.596;2022-12-18T09:40:45;21.30;42.80
32027;DHT22;18543;50.848;4.596;2022-12-18T09:43:17;21.40;43.10
32027;DHT22;18543;50.848;4.596;2022-12-18T09:45:49;21.40;43.20
32027;DHT22;18543;50.848;4.596;2022-12-18T09:48:37;21.40;43.30
32027;DHT22;18543;50.848;4.596;2022-12-18T09:51:19;21.40;43.40
32027;DHT22;18543;50.848;4.596;2022-12-18T09:53:56;21.40;43.50
32027;DHT22;18543;50.848;4.596;2022-12-18T09:56:28;21.40;43.60
32027;DHT22;18543;50.848;4.596;2022-12-18T09:58:58;21.40;43.60
32027;DHT22;18543;50.848;4.596;2022-12-18T10:01:27;21.40;43.70
32027;DHT22;18543;50.848;4.596;2022-12-18T10:04:08;21.40;43.70
32027;DHT22;18543;50.848;4.596;2022-12-18T10:07:18;21.40;43.80
32027;DHT22;18543;50.848;4.596;2022-12-18T10:10:04;21.50;43.90
32027;DHT22;18543;50.848;4.596;2022-12-18T10:12:42;21.50;43.90
32027;DHT22;18543;50.848;4.596;2022-12-18T10:15:36;21.50;44.00
32027;DHT22;18543;50.848;4.596;2022-12-18T10:18:36;21.50;44.00
32027;DHT22;18543;50.848;4.596;2022-12-18T10:21:11;21.50;44.10
32027;DHT22;18543;50.848;4.596;2022-12-18T10:26:28;21.60;44.10
32027;DHT22;18543;50.848;4.596;2022-12-18T10:28:58;21.60;44.10
32027;DHT22;18543;50.848;4.596;2022-12-18T10:31:31;21.60;44.10
32027;DHT22;18543;50.848;4.596;2022-12-18T10:33:58;21.60;44.10
32027;DHT22;18543;50.848;4.596;2022-12-18T10:36:25;21.60;44.10
32027;DHT22;18543;50.848;4.596;2022-12-18T10:38:52;21.60;44.10
32027;DHT22;18543;50.848;4.596;2022-12-18T10:44:22;21.50;44.00
32027;DHT22;18543;50.848;4.596;2022-12-18T10:46:55;21.60;43.90
32027;DHT22;18543;50.848;4.596;2022-12-18T10:49:35;21.60;44.00
32027;DHT22;18543;50.848;4.596;2022-12-18T10:54:34;21.60;44.00
32027;DHT22;18543;50.848;4.596;2022-12-18T10:57:15;21.60;44.00
32027;DHT22;18543;50.848;4.596;2022-12-18T10:59:56;21.60;44.10
32027;DHT22;18543;50.848;4.596;2022-12-18T11:02:36;21.60;40.50
32027;DHT22;18543;50.848;4.596;2022-12-18T11:05:27;21.50;41.10
32027;DHT22;18543;50.848;4.596;2022-12-18T11:07:55;21.50;41.90
32027;DHT22;18543;50.848;4.596;2022-12-18T11:10:30;21.50;42.80
32027;DHT22;18543;50.848;4.596;2022-12-18T11:13:22;21.50;42.80
32027;DHT22;18543;50.848;4.596;2022-12-18T11:15:51;21.50;42.90
32027;DHT22;18543;50.848;4.596;2022-12-18T11:18:31;21.50;43.10
32027;DHT22;18543;50.848;4.596;2022-12-18T11:21:10;21.50;43.30
32027;DHT22;18543;50.848;4.596;2022-12-18T11:23:52;21.50;43.40
32027;DHT22;18543;50.848;4.596;2022-12-18T11:26:20;21.50;43.50
32027;DHT22;18543;50.848;4.596;2022-12-18T11:29:12;21.50;43.60
32027;DHT22;18543;50.848;4.596;2022-12-18T11:31:43;21.50;43.70
32027;DHT22;18543;50.848;4.596;2022-12-18T11:34:42;21.50;43.80
32027;DHT22;18543;50.848;4.596;2022-12-18T11:37:13;21.50;43.90
32027;DHT22;18543;50.848;4.596;2022-12-18T11:39:41;21.50;44.00
32027;DHT22;18543;50.848;4.596;2022-12-18T11:42:18;21.50;44.00
32027;DHT22;18543;50.848;4.596;2022-12-18T11:45:00;21.50;44.10
32027;DHT22;18543;50.848;4.596;2022-12-18T11:50:48;21.60;44.20
32027;DHT22;18543;50.848;4.596;2022-12-18T11:53:16;21.60;44.20
32027;DHT22;18543;50.848;4.596;2022-12-18T12:13:15;21.50;44.50
32027;DHT22;18543;50.848;4.596;2022-12-18T12:23:48;21.30;45.00
32027;DHT22;18543;50.848;4.596;2022-12-18T12:29:05;21.30;45.10
32027;DHT22;18543;50.848;4.596;2022-12-18T12:37:17;21.30;45.30
32027;DHT22;18543;50.848;4.596;2022-12-18T12:39:47;21.30;45.40
32027;DHT22;18543;50.848;4.596;2022-12-18T12:42:26;21.30;45.40
32027;DHT22;18543;50.848;4.596;2022-12-18T12:45:22;21.30;45.40
32027;DHT22;18543;50.848;4.596;2022-12-18T12:47:54;21.30;45.50
32027;DHT22;18543;50.848;4.596;2022-12-18T12:50:21;21.30;45.50
32027;DHT22;18543;50.848;4.596;2022-12-18T12:52:55;21.40;45.50
32027;DHT22;18543;50.848;4.596;2022-12-18T12:55:25;21.30;45.50
32027;DHT22;18543;50.848;4.596;2022-12-18T13:00:26;21.40;45.60
32027;DHT22;18543;50.848;4.596;2022-12-18T13:03:12;21.40;45.60
32027;DHT22;18543;50.848;4.596;2022-12-18T13:06:08;21.40;45.60
32027;DHT22;18543;50.848;4.596;2022-12-18T13:08:58;21.40;45.70
32027;DHT22;18543;50.848;4.596;2022-12-18T13:11:41;21.40;45.60
32027;DHT22;18543;50.848;4.596;2022-12-18T13:14:37;21.40;45.50
32027;DHT22;18543;50.848;4.596;2022-12-18T13:20:07;21.40;45.60
32027;DHT22;18543;50.848;4.596;2022-12-18T13:22:40;21.50;45.70
32027;DHT22;18543;50.848;4.596;2022-12-18T13:25:46;21.50;45.70
32027;DHT22;18543;50.848;4.596;2022-12-18T13:28:20;21.50;45.60
32027;DHT22;18543;50.848;4.596;2022-12-18T13:30:56;21.50;45.70
32027;DHT22;18543;50.848;4.596;2022-12-18T13:33:36;21.50;45.60
32027;DHT22;18543;50.848;4.596;2022-12-18T13:36:27;21.50;45.50
32027;DHT22;18543;50.848;4.596;2022-12-18T13:44:57;21.50;45.50
32027;DHT22;18543;50.848;4.596;2022-12-18T13:47:32;21.60;45.50
32027;DHT22;18543;50.848;4.596;2022-12-18T13:50:03;21.60;45.50
32027;DHT22;18543;50.848;4.596;2022-12-18T13:52:38;21.60;45.40
32027;DHT22;18543;50.848;4.596;2022-12-18T13:55:15;21.60;45.40
32027;DHT22;18543;50.848;4.596;2022-12-18T13:57:42;21.60;45.50
32027;DHT22;18543;50.848;4.596;2022-12-18T14:00:27;21.60;45.40
32027;DHT22;18543;50.848;4.596;2022-12-18T14:02:56;21.60;45.40
32027;DHT22;18543;50.848;4.596;2022-12-18T14:05:35;21.60;45.40
32027;DHT22;18543;50.848;4.596;2022-12-18T14:08:13;21.60;45.30
32027;DHT22;18543;50.848;4.596;2022-12-18T14:10:45;21.60;45.40
32027;DHT22;18543;50.848;4.596;2022-12-18T14:13:26;21.60;45.40
32027;DHT22;18543;50.848;4.596;2022-12-18T14:15:55;21.60;45.30
32027;DHT22;18543;50.848;4.596;2022-12-18T14:18:45;21.60;45.30
32027;DHT22;18543;50.848;4.596;2022-12-18T14:21:21;21.60;45.30
32027;DHT22;18543;50.848;4.596;2022-12-18T14:23:48;21.70;45.40
32027;DHT22;18543;50.848;4.596;2022-12-18T14:26:30;21.70;45.40
32027;DHT22;18543;50.848;4.596;2022-12-18T14:28:59;21.70;45.40
32027;DHT22;18543;50.848;4.596;2022-12-18T14:31:30;21.70;45.40
32027;DHT22;18543;50.848;4.596;2022-12-18T14:34:00;21.70;45.40
32027;DHT22;18543;50.848;4.596;2022-12-18T14:36:28;21.70;45.50
32027;DHT22;18543;50.848;4.596;2022-12-18T14:38:57;21.70;45.50
32027;DHT22;18543;50.848;4.596;2022-12-18T14:41:25;21.80;45.50
32027;DHT22;18543;50.848;4.596;2022-12-18T14:43:53;21.80;45.50
32027;DHT22;18543;50.848;4.596;2022-12-18T14:46:34;21.80;45.50
32027;DHT22;18543;50.848;4.596;2022-12-18T14:49:04;21.80;45.50
32027;DHT22;18543;50.848;4.596;2022-12-18T14:51:33;21.80;45.50
32027;DHT22;18543;50.848;4.596;2022-12-18T14:54:06;21.80;45.50
32027;DHT22;18543;50.848;4.596;2022-12-18T14:56:46;21.80;46.10
32027;DHT22;18543;50.848;4.596;2022-12-18T14:59:16;21.80;45.60
32027;DHT22;18543;50.848;4.596;2022-12-18T15:04:39;21.80;45.60
32027;DHT22;18543;50.848;4.596;2022-12-18T15:07:23;21.80;45.60
32027;DHT22;18543;50.848;4.596;2022-12-18T15:10:17;21.80;45.60
32027;DHT22;18543;50.848;4.596;2022-12-18T15:20:44;21.80;45.70
32027;DHT22;18543;50.848;4.596;2022-12-18T15:25:46;21.80;45.70
32027;DHT22;18543;50.848;4.596;2022-12-18T15:28:24;21.80;45.80
32027;DHT22;18543;50.848;4.596;2022-12-18T15:33:41;21.80;45.80
32027;DHT22;18543;50.848;4.596;2022-12-18T15:36:11;21.80;45.90
32027;DHT22;18543;50.848;4.596;2022-12-18T15:38:38;21.80;45.90
32027;DHT22;18543;50.848;4.596;2022-12-18T15:41:05;21.80;46.00
32027;DHT22;18543;50.848;4.596;2022-12-18T15:43:42;21.70;46.00
32027;DHT22;18543;50.848;4.596;2022-12-18T15:46:14;21.70;46.20
32027;DHT22;18543;50.848;4.596;2022-12-18T15:48:46;21.60;46.20
32027;DHT22;18543;50.848;4.596;2022-12-18T15:51:20;21.60;46.30
32027;DHT22;18543;50.848;4.596;2022-12-18T15:53:49;21.60;46.30
32027;DHT22;18543;50.848;4.596;2022-12-18T15:56:19;21.50;43.40
32027;DHT22;18543;50.848;4.596;2022-12-18T15:59:18;21.30;42.10
32027;DHT22;18543;50.848;4.596;2022-12-18T16:01:50;21.20;42.80
32027;DHT22;18543;50.848;4.596;2022-12-18T16:04:19;21.20;43.60
32027;DHT22;18543;50.848;4.596;2022-12-18T16:06:50;21.20;44.10
32027;DHT22;18543;50.848;4.596;2022-12-18T16:09:38;21.20;44.40
32027;DHT22;18543;50.848;4.596;2022-12-18T16:12:15;21.30;44.70
32027;DHT22;18543;50.848;4.596;2022-12-18T16:14:42;21.30;44.80
32027;DHT22;18543;50.848;4.596;2022-12-18T16:17:10;21.30;44.90
32027;DHT22;18543;50.848;4.596;2022-12-18T16:19:40;21.30;44.90
32027;DHT22;18543;50.848;4.596;2022-12-18T16:22:22;21.40;45.10
32027;DHT22;18543;50.848;4.596;2022-12-18T16:24:51;21.40;45.10
32027;DHT22;18543;50.848;4.596;2022-12-18T16:27:18;21.40;45.20
32027;DHT22;18543;50.848;4.596;2022-12-18T16:29:45;21.50;45.30
32027;DHT22;18543;50.848;4.596;2022-12-18T16:32:18;21.50;45.30
32027;DHT22;18543;50.848;4.596;2022-12-18T16:34:46;21.50;45.30
32027;DHT22;18543;50.848;4.596;2022-12-18T16:37:14;21.50;45.30
32027;DHT22;18543;50.848;4.596;2022-12-18T16:39:41;21.50;45.40
32027;DHT22;18543;50.848;4.596;2022-12-18T16:42:13;21.50;45.40
32027;DHT22;18543;50.848;4.596;2022-12-18T16:44:43;21.50;45.50
32027;DHT22;18543;50.848;4.596;2022-12-18T16:47:10;21.60;45.50
32027;DHT22;18543;50.848;4.596;2022-12-18T16:49:41;21.60;45.50
32027;DHT22;18543;50.848;4.596;2022-12-18T16:52:08;21.60;45.50
32027;DHT22;18543;50.848;4.596;2022-12-18T16:54:35;21.60;45.50
32027;DHT22;18543;50.848;4.596;2022-12-18T16:57:03;21.60;45.50
32027;DHT22;18543;50.848;4.596;2022-12-18T16:59:31;21.60;45.50
32027;DHT22;18543;50.848;4.596;2022-12-18T17:01:58;21.60;45.50
32027;DHT22;18543;50.848;4.596;2022-12-18T17:04:25;21.60;45.50
32027;DHT22;18543;50.848;4.596;2022-12-18T17:06:52;21.60;45.20
32027;DHT22;18543;50.848;4.596;2022-12-18T17:09:20;21.60;45.40
32027;DHT22;18543;50.848;4.596;2022-12-18T17:12:07;21.60;45.20
32027;DHT22;18543;50.848;4.596;2022-12-18T17:14:35;21.60;45.30
32027;DHT22;18543;50.848;4.596;2022-12-18T17:17:02;21.60;45.30
32027;DHT22;18543;50.848;4.596;2022-12-18T17:19:50;21.60;45.40
32027;DHT22;18543;50.848;4.596;2022-12-18T17:22:17;21.60;45.40
32027;DHT22;18543;50.848;4.596;2022-12-18T17:24:45;21.60;45.50
32027;DHT22;18543;50.848;4.596;2022-12-18T17:27:12;21.60;45.50
32027;DHT22;18543;50.848;4.596;2022-12-18T17:29:39;21.70;45.50
32027;DHT22;18543;50.848;4.596;2022-12-18T17:32:14;21.70;45.60